Terminal Aerodrome Forecast
Issued by NWS

Home | Current Version | Previous Version | Text Only | Print | Product List | Glossary Off
Versions: 1 2 3 4 5 6 7 8 9 10 11 12 13 14 15 16 17 18 19 20 21

562
FTUS43 KIWX 100751 AAA
TAFSBN
TAF AMD
KSBN 100751Z 1008/1106 30012G20KT 4SM -SN BR SCT016 OVC029
      TEMPO 1008/1012 2SM -SHSN BR BLSN OVC016
     FM101400 30014G21KT 2SM -SHSN BR OVC015
     FM102200 30012KT 4SM -SHSN OVC025=

USA.gov is the U.S. government's official web portal to all federal, state and local government web resources and services.